createdAt,value
2019-03-15T00:01:42.172Z,98026.52
2019-03-15T00:04:11.039Z,98028.69
2019-03-15T00:06:39.639Z,98021.72
2019-03-15T00:09:08.615Z,98027.46
2019-03-15T00:11:36.991Z,98023.16
2019-03-15T00:14:05.811Z,98024.27
2019-03-15T00:16:34.190Z,98024.27
2019-03-15T00:19:02.579Z,98039.11
2019-03-15T00:21:30.963Z,98041.75
2019-03-15T00:23:59.385Z,98039.11
2019-03-15T00:26:27.730Z,98033.37
2019-03-15T00:28:56.118Z,98036.48
2019-03-15T00:31:24.496Z,98034.81
2019-03-15T00:33:52.881Z,98041.03
2019-03-15T00:36:21.261Z,98048.00
2019-03-15T00:38:49.651Z,98052.30
2019-03-15T00:41:18.035Z,98046.30
2019-03-15T00:43:49.202Z,98042.35
2019-03-15T00:46:16.524Z,98040.56
2019-03-15T00:48:44.900Z,98044.98
2019-03-15T00:51:13.298Z,98039.37
2019-03-15T00:53:41.693Z,98034.56
2019-03-15T00:56:10.077Z,98038.17
2019-03-15T00:58:38.465Z,98041.28
2019-03-15T01:01:06.856Z,98041.63
2019-03-15T01:03:35.241Z,98045.24
2019-03-15T01:06:03.627Z,98046.09
2019-03-15T01:08:32.430Z,98049.67
2019-03-15T01:11:00.816Z,98040.81
2019-03-15T01:13:29.203Z,98034.69
2019-03-15T01:15:57.603Z,98036.61
2019-03-15T01:18:25.988Z,98036.61
2019-03-15T01:20:54.359Z,98043.92
2019-03-15T01:23:22.736Z,98048.34
2019-03-15T01:25:51.129Z,98050.52
2019-03-15T01:28:19.509Z,98046.56
2019-03-15T01:30:47.895Z,98046.09
2019-03-15T01:33:16.276Z,98039.97
2019-03-15T01:35:44.669Z,98050.52
2019-03-15T01:38:13.048Z,98040.09
2019-03-15T01:40:41.435Z,98040.56
2019-03-15T01:43:09.808Z,98039.59
2019-03-15T01:45:38.193Z,98038.64
2019-03-15T01:48:06.577Z,98042.23
2019-03-15T01:50:35.036Z,98033.38
2019-03-15T01:53:03.427Z,98040.44
2019-03-15T01:55:32.533Z,98041.03
2019-03-15T01:58:00.913Z,98041.87
2019-03-15T02:00:29.307Z,98043.20
2019-03-15T02:02:57.688Z,98037.58
2019-03-15T02:05:26.085Z,98041.75
2019-03-15T02:07:54.479Z,98034.56
2019-03-15T02:10:22.889Z,98031.67
2019-03-15T02:12:51.262Z,98035.63
2019-03-15T02:15:19.648Z,98029.55
2019-03-15T02:17:48.024Z,98021.13
2019-03-15T02:20:16.409Z,98030.36
2019-03-15T02:22:44.790Z,98037.80
2019-03-15T02:25:13.216Z,98032.53
2019-03-15T02:27:41.602Z,98036.35
2019-03-15T02:30:11.233Z,98038.99
2019-03-15T02:32:39.838Z,98038.64
2019-03-15T02:35:08.250Z,98046.18
2019-03-15T02:37:36.701Z,98037.33
2019-03-15T02:40:06.629Z,98036.95
2019-03-15T02:42:35.037Z,98045.71
2019-03-15T02:45:03.381Z,98037.92
2019-03-15T02:47:31.775Z,98044.86
2019-03-15T02:50:01.311Z,98038.64
2019-03-15T02:52:30.423Z,98040.91
2019-03-15T02:54:58.834Z,98038.27
2019-03-15T02:57:27.193Z,98027.25
2019-03-15T02:59:55.620Z,98041.28
2019-03-15T03:02:23.955Z,98041.28
2019-03-15T03:04:52.335Z,98031.67
2019-03-15T03:07:21.179Z,98030.73
2019-03-15T03:09:49.682Z,98028.56
2019-03-15T03:12:18.077Z,98038.27
2019-03-15T03:14:47.416Z,98036.95
2019-03-15T03:17:15.808Z,98041.75
2019-03-15T03:19:44.186Z,98047.16
2019-03-15T03:22:12.578Z,98045.24
2019-03-15T03:24:40.967Z,98041.75
2019-03-15T03:27:09.353Z,98042.23
2019-03-15T03:29:37.742Z,98046.18
2019-03-15T03:32:06.130Z,98042.23
2019-03-15T03:34:34.779Z,98044.52
2019-03-15T03:37:03.442Z,98042.73
2019-03-15T03:39:31.812Z,98043.08
2019-03-15T03:42:00.274Z,98037.45
2019-03-15T03:44:28.653Z,98028.70
2019-03-15T03:46:57.035Z,98031.33
2019-03-15T03:49:25.410Z,98017.52
2019-03-15T03:51:54.058Z,98015.98
2019-03-15T03:54:22.450Z,98017.30
2019-03-15T03:56:50.827Z,98008.92
2019-03-15T03:59:19.215Z,98011.21
2019-03-15T04:01:47.601Z,98022.57
2019-03-15T04:04:16.061Z,98014.66
2019-03-15T04:06:44.438Z,98006.41
2019-03-15T04:09:12.817Z,98008.58
2019-03-15T04:11:54.298Z,97995.39
2019-03-15T04:14:11.301Z,97996.70
2019-03-15T04:16:39.695Z,97993.09
2019-03-15T04:19:08.076Z,97995.02
2019-03-15T04:21:36.458Z,97994.07
2019-03-15T04:24:04.843Z,97989.73
2019-03-15T04:26:33.712Z,97993.22
2019-03-15T04:29:02.096Z,97987.60
2019-03-15T04:31:30.475Z,97984.97
2019-03-15T04:33:58.854Z,97988.42
2019-03-15T04:36:27.229Z,97988.98
2019-03-15T04:38:55.616Z,97985.78
2019-03-15T04:41:23.998Z,97981.48
2019-03-15T04:43:52.408Z,97978.38
2019-03-15T04:46:20.766Z,97985.44
2019-03-15T04:48:49.150Z,97983.24
2019-03-15T04:51:17.557Z,97979.28
2019-03-15T04:53:45.981Z,97983.71
2019-03-15T04:56:14.365Z,97988.17
2019-03-15T04:58:42.759Z,97988.30
2019-03-15T05:01:11.201Z,97988.98
2019-03-15T05:03:39.591Z,97999.19
2019-03-15T05:06:07.968Z,97991.75
2019-03-15T05:08:36.418Z,97994.26
2019-03-15T05:11:04.796Z,97988.17
2019-03-15T05:13:34.371Z,97991.15
2019-03-15T05:16:02.819Z,97990.71
2019-03-15T05:18:31.199Z,97989.73
2019-03-15T05:20:59.592Z,97981.48
2019-03-15T05:23:27.976Z,97967.80
2019-03-15T05:25:56.365Z,97979.06
2019-03-15T05:28:24.742Z,97984.84
2019-03-15T05:30:53.125Z,97979.19
2019-03-15T05:33:21.505Z,97985.31
2019-03-15T05:35:50.189Z,97989.14
2019-03-15T05:38:18.570Z,97984.46
2019-03-15T05:40:46.960Z,97977.88
2019-03-15T05:43:15.343Z,97972.59
2019-03-15T05:45:43.735Z,97963.02
2019-03-15T05:48:12.108Z,97957.75
2019-03-15T05:50:40.904Z,97955.55
2019-03-15T05:53:09.368Z,97948.52
2019-03-15T05:55:37.762Z,97942.78
2019-03-15T05:58:06.144Z,97946.23
2019-03-15T06:00:34.606Z,97940.95
2019-03-15T06:03:03.045Z,97933.42
2019-03-15T06:05:31.386Z,97932.10
2019-03-15T06:07:59.761Z,97937.84
2019-03-15T06:10:28.147Z,97937.38
2019-03-15T06:12:56.536Z,97927.30
2019-03-15T06:15:24.920Z,97922.02
2019-03-15T06:17:53.295Z,97919.86
2019-03-15T06:20:21.675Z,97928.14
2019-03-15T06:22:50.062Z,97929.80
2019-03-15T06:25:18.684Z,97923.34
2019-03-15T06:27:47.128Z,97921.55
2019-03-15T06:30:15.926Z,97921.55
2019-03-15T06:32:44.263Z,97918.91
2019-03-15T06:35:12.649Z,97905.73
2019-03-15T06:37:41.028Z,97901.77
2019-03-15T06:40:13.369Z,97902.11
2019-03-15T06:42:40.765Z,97899.00
2019-03-15T06:45:13.961Z,97907.39
2019-03-15T06:47:42.341Z,97899.48
2019-03-15T06:50:10.725Z,97904.41
2019-03-15T06:52:39.114Z,97893.99
2019-03-15T06:55:09.251Z,97886.14
2019-03-15T06:57:37.617Z,97887.40
2019-03-15T07:00:15.298Z,97885.23
2019-03-15T07:02:43.681Z,97883.51
2019-03-15T07:05:12.672Z,97886.99
2019-03-15T07:07:41.190Z,97881.28
2019-03-15T07:10:10.807Z,97876.00
2019-03-15T07:12:40.379Z,97886.89
2019-03-15T07:15:11.657Z,97888.22
2019-03-15T07:17:40.057Z,97880.81
2019-03-15T07:20:11.444Z,97880.68
2019-03-15T07:22:39.830Z,97877.33
2019-03-15T07:25:10.047Z,97876.34
2019-03-15T07:27:42.303Z,97869.01
2019-03-15T07:30:14.336Z,97876.45
2019-03-15T07:32:42.718Z,97867.69
2019-03-15T07:35:11.264Z,97868.19
2019-03-15T07:37:39.933Z,97860.41
2019-03-15T07:40:12.642Z,97855.01
2019-03-15T07:42:41.028Z,97859.44
2019-03-15T07:45:11.999Z,97852.97
2019-03-15T07:47:40.381Z,97845.53
2019-03-15T07:50:16.362Z,97841.24
2019-03-15T07:52:44.922Z,97837.28
2019-03-15T07:55:13.337Z,97833.33
2019-03-15T07:57:41.722Z,97835.25
2019-03-15T08:00:12.289Z,97827.95
2019-03-15T08:02:40.679Z,97819.30
2019-03-15T08:05:09.992Z,97813.08
2019-03-15T08:07:44.772Z,97810.92
2019-03-15T08:10:12.700Z,97809.60
2019-03-15T08:12:41.118Z,97810.67
2019-03-15T08:15:11.102Z,97807.91
2019-03-15T08:17:39.752Z,97805.65
2019-03-15T08:20:10.743Z,97795.95
2019-03-15T08:22:39.790Z,97800.38
2019-03-15T08:25:10.036Z,97801.69
2019-03-15T08:27:38.430Z,97800.38
2019-03-15T08:30:12.768Z,97801.45
2019-03-15T08:32:43.357Z,97797.02
2019-03-15T08:35:11.989Z,97783.84
2019-03-15T08:37:40.447Z,97796.78
2019-03-15T08:40:13.638Z,97790.19
2019-03-15T08:42:42.021Z,97785.55
2019-03-15T08:45:15.419Z,97786.36
2019-03-15T08:47:43.813Z,97783.73
2019-03-15T08:50:16.309Z,97788.19
2019-03-15T08:52:44.705Z,97795.12
2019-03-15T08:55:13.900Z,97788.32
2019-03-15T08:57:42.473Z,97778.59
2019-03-15T09:00:15.580Z,97775.14
2019-03-15T09:02:43.965Z,97788.66
2019-03-15T09:05:14.367Z,97780.41
2019-03-15T09:07:43.139Z,97785.69
2019-03-15T09:10:22.721Z,97779.44
2019-03-15T09:12:43.894Z,97787.00
2019-03-15T09:15:13.352Z,97792.62
2019-03-15T09:17:41.782Z,97797.41
2019-03-15T09:20:11.516Z,97787.21
2019-03-15T09:22:40.202Z,97797.16
2019-03-15T09:25:19.457Z,97798.47
2019-03-15T09:27:40.617Z,97802.77
2019-03-15T09:30:23.344Z,97791.41
2019-03-15T09:32:43.828Z,97792.94
2019-03-15T09:35:12.221Z,97789.70
2019-03-15T09:37:40.607Z,97788.38
2019-03-15T09:40:18.205Z,97788.72
2019-03-15T09:42:46.596Z,97792.95
2019-03-15T09:45:18.885Z,97784.63
2019-03-15T09:47:47.335Z,97782.97
2019-03-15T09:50:26.642Z,97787.77
2019-03-15T09:52:46.658Z,97785.61
2019-03-15T09:55:15.229Z,97780.33
2019-03-15T09:57:43.597Z,97779.86
2019-03-15T10:00:17.661Z,97778.44
2019-03-15T10:02:46.331Z,97783.92
2019-03-15T10:05:14.897Z,97771.11
2019-03-15T10:07:44.152Z,97767.50
2019-03-15T10:10:18.927Z,97770.27
2019-03-15T10:12:47.431Z,97765.84
2019-03-15T10:15:16.673Z,97767.16
2019-03-15T10:17:45.220Z,97769.29
2019-03-15T10:20:14.747Z,97775.41
2019-03-15T10:22:43.131Z,97775.41
2019-03-15T10:25:13.056Z,97761.75
2019-03-15T10:27:41.437Z,97763.91
2019-03-15T10:30:18.343Z,97770.00
2019-03-15T10:32:46.792Z,97766.42
2019-03-15T10:35:15.253Z,97761.48
2019-03-15T10:37:43.629Z,97769.39
2019-03-15T10:40:19.986Z,97767.13
2019-03-15T10:42:48.439Z,97774.06
2019-03-15T10:45:16.832Z,97775.37
2019-03-15T10:47:45.387Z,97781.00
2019-03-15T10:50:18.510Z,97782.31
2019-03-15T10:52:46.919Z,97774.27
2019-03-15T10:55:15.589Z,97790.09
2019-03-15T10:57:44.055Z,97798.72
2019-03-15T11:00:18.951Z,97800.88
2019-03-15T11:02:47.320Z,97791.86
2019-03-15T11:05:15.705Z,97791.86
2019-03-15T11:07:44.142Z,97794.50
2019-03-15T11:10:13.708Z,97802.30
2019-03-15T11:12:42.094Z,97797.03
2019-03-15T11:15:15.371Z,97810.22
2019-03-15T11:17:43.750Z,97780.70
2019-03-15T11:20:12.874Z,97800.48
2019-03-15T11:22:41.422Z,97811.88
2019-03-15T11:25:11.700Z,97807.08
2019-03-15T11:27:41.138Z,97796.90
2019-03-15T11:30:11.932Z,97822.09
2019-03-15T11:32:41.151Z,97804.44
2019-03-15T11:35:10.173Z,97818.13
2019-03-15T11:37:38.881Z,97817.28
2019-03-15T11:40:10.092Z,97821.59
2019-03-15T11:42:38.580Z,97831.32
2019-03-15T11:45:08.879Z,97818.61
2019-03-15T11:47:50.727Z,97821.59
2019-03-15T11:50:10.445Z,97822.09
2019-03-15T11:52:38.831Z,97827.70
2019-03-15T11:55:08.750Z,97826.39
2019-03-15T11:57:37.142Z,97826.39
2019-03-15T12:00:11.549Z,97833.32
2019-03-15T12:02:39.939Z,97816.89
2019-03-15T12:05:08.762Z,97834.98
2019-03-15T12:07:37.147Z,97838.95
2019-03-15T12:10:14.382Z,97840.36
2019-03-15T12:12:42.847Z,97840.36
2019-03-15T12:15:19.855Z,97858.36
2019-03-15T12:17:48.237Z,97851.77
2019-03-15T12:20:16.619Z,97847.80
2019-03-15T12:22:45.007Z,97842.53
2019-03-15T12:25:13.621Z,97839.89
2019-03-15T12:27:42.012Z,97832.34
2019-03-15T12:30:17.112Z,97831.03
2019-03-15T12:32:45.503Z,97841.92
2019-03-15T12:35:14.625Z,97840.47
2019-03-15T12:37:43.011Z,97840.47
2019-03-15T12:40:13.414Z,97837.83
2019-03-15T12:42:42.034Z,97839.02
2019-03-15T12:45:12.323Z,97829.66
2019-03-15T12:47:40.791Z,97829.66
2019-03-15T12:50:15.787Z,97828.00
2019-03-15T12:52:48.458Z,97833.61
2019-03-15T12:55:15.277Z,97835.44
2019-03-15T12:57:43.662Z,97836.05
2019-03-15T13:00:17.050Z,97835.44
2019-03-15T13:02:45.429Z,97830.16
2019-03-15T13:05:13.976Z,97844.67
2019-03-15T13:07:42.374Z,97845.48
2019-03-15T13:10:16.382Z,97859.28
2019-03-15T13:12:44.776Z,97847.06
2019-03-15T13:15:15.162Z,97861.58
2019-03-15T13:17:43.554Z,97854.38
2019-03-15T13:20:16.318Z,97843.82
2019-03-15T13:22:44.696Z,97847.41
2019-03-15T13:25:13.422Z,97851.87
2019-03-15T13:27:42.123Z,97843.45
2019-03-15T13:30:15.458Z,97852.21
2019-03-15T13:32:43.851Z,97853.53
2019-03-15T13:35:12.966Z,97846.09
2019-03-15T13:37:43.141Z,97856.41
2019-03-15T13:40:19.593Z,97847.95
2019-03-15T13:42:47.978Z,97845.90
2019-03-15T13:45:17.030Z,97854.66
2019-03-15T13:47:45.445Z,97861.87
2019-03-15T13:50:21.064Z,97845.69
2019-03-15T13:52:49.449Z,97851.07
2019-03-15T13:55:17.845Z,97856.86
2019-03-15T13:57:46.218Z,97853.03
2019-03-15T14:00:18.563Z,97845.22
2019-03-15T14:02:46.945Z,97853.50
2019-03-15T14:05:15.337Z,97844.74
2019-03-15T14:07:43.716Z,97841.39
2019-03-15T14:10:17.030Z,97851.00
2019-03-15T14:12:45.485Z,97863.69
2019-03-15T14:15:15.219Z,97858.06
2019-03-15T14:17:43.600Z,97855.43
2019-03-15T14:20:13.059Z,97845.72
2019-03-15T14:22:42.383Z,97851.00
2019-03-15T14:25:18.863Z,97844.41
2019-03-15T14:27:47.281Z,97843.89
2019-03-15T14:30:15.659Z,97841.77
2019-03-15T14:32:44.039Z,97848.83
2019-03-15T14:35:12.438Z,97828.33
2019-03-15T14:37:41.037Z,97851.81
2019-03-15T14:40:13.495Z,97843.09
2019-03-15T14:42:42.525Z,97838.86
2019-03-15T14:45:13.269Z,97851.58
2019-03-15T14:47:42.400Z,97836.70
2019-03-15T14:50:12.325Z,97836.83
2019-03-15T14:52:40.708Z,97824.82
2019-03-15T14:55:11.376Z,97835.38
2019-03-15T14:57:51.352Z,97852.52
2019-03-15T15:00:20.414Z,97849.07
2019-03-15T15:02:48.970Z,97845.92
2019-03-15T15:05:17.353Z,97850.73
2019-03-15T15:07:45.731Z,97850.26
2019-03-15T15:10:17.595Z,97834.90
2019-03-15T15:12:46.087Z,97835.87
2019-03-15T15:15:15.637Z,97849.89
2019-03-15T15:17:43.994Z,97851.20
2019-03-15T15:20:13.297Z,97858.31
2019-03-15T15:22:42.641Z,97849.41
2019-03-15T15:25:12.162Z,97832.60
2019-03-15T15:27:40.547Z,97834.05
2019-03-15T15:30:16.090Z,97834.77
2019-03-15T15:32:44.487Z,97837.88
2019-03-15T15:35:14.304Z,97842.68
2019-03-15T15:37:42.738Z,97848.33
2019-03-15T15:40:18.348Z,97829.48
2019-03-15T15:42:46.745Z,97829.48
2019-03-15T15:45:15.274Z,97840.73
2019-03-15T15:47:43.674Z,97843.50
2019-03-15T15:50:14.246Z,97838.09
2019-03-15T15:52:42.840Z,97844.31
2019-03-15T15:55:12.707Z,97838.56
2019-03-15T15:57:41.088Z,97824.39
2019-03-15T16:00:16.465Z,97826.69
2019-03-15T16:02:44.856Z,97824.89
2019-03-15T16:05:13.379Z,97822.94
2019-03-15T16:07:41.814Z,97818.16
2019-03-15T16:10:12.117Z,97820.05
2019-03-15T16:12:40.509Z,97817.89
2019-03-15T16:15:11.529Z,97826.52
2019-03-15T16:17:39.918Z,97832.98
2019-03-15T16:20:10.634Z,97818.09
2019-03-15T16:22:39.079Z,97838.73
2019-03-15T16:25:09.641Z,97826.52
2019-03-15T16:27:38.079Z,97814.98
2019-03-15T16:30:12.303Z,97817.86
2019-03-15T16:32:40.696Z,97810.75
2019-03-15T16:35:11.114Z,97819.99
2019-03-15T16:37:39.521Z,97811.59
2019-03-15T16:40:10.171Z,97806.19
2019-03-15T16:42:38.555Z,97808.69
2019-03-15T16:45:15.882Z,97824.05
2019-03-15T16:47:44.442Z,97823.20
2019-03-15T16:50:13.879Z,97807.60
2019-03-15T16:52:43.313Z,97806.15
2019-03-15T16:55:12.533Z,97836.37
2019-03-15T16:57:40.926Z,97821.98
2019-03-15T17:00:12.015Z,97814.81
2019-03-15T17:02:40.401Z,97813.97
2019-03-15T17:05:10.687Z,97823.78
2019-03-15T17:07:39.260Z,97805.54
2019-03-15T17:10:10.343Z,97796.44
2019-03-15T17:12:38.741Z,97810.78
2019-03-15T17:15:19.059Z,97828.14
2019-03-15T17:17:47.532Z,97825.03
2019-03-15T17:20:15.914Z,97837.95
2019-03-15T17:22:44.341Z,97836.64
2019-03-15T17:25:13.479Z,97843.84
2019-03-15T17:27:41.882Z,97846.82
2019-03-15T17:30:16.763Z,97841.98
2019-03-15T17:32:45.175Z,97848.81
2019-03-15T17:35:17.010Z,97857.58
2019-03-15T17:37:45.403Z,97853.82
2019-03-15T17:40:16.862Z,97857.64
2019-03-15T17:42:45.340Z,97858.70
2019-03-15T17:45:13.994Z,97854.12
2019-03-15T17:47:42.464Z,97867.70
2019-03-15T17:50:19.112Z,97867.05
2019-03-15T17:52:47.505Z,97870.06
2019-03-15T17:55:16.946Z,97874.73
2019-03-15T17:57:46.148Z,97879.88
2019-03-15T18:00:52.242Z,97883.77
2019-03-15T18:03:21.997Z,97860.36
2019-03-15T18:05:50.580Z,97869.61
2019-03-15T18:08:18.980Z,97878.38
2019-03-15T18:10:47.374Z,97873.16
2019-03-15T18:13:15.781Z,97894.02
2019-03-15T18:15:44.167Z,97903.03
2019-03-15T18:18:12.548Z,97898.55
2019-03-15T18:20:40.953Z,97911.86
2019-03-15T18:23:09.351Z,97919.98
2019-03-15T18:25:37.741Z,97918.67
2019-03-15T18:28:06.166Z,97929.14
2019-03-15T18:30:34.628Z,97936.42
2019-03-15T18:33:03.014Z,97950.95
2019-03-15T18:35:34.089Z,97966.81
2019-03-15T18:38:01.521Z,97953.83
2019-03-15T18:40:29.941Z,97948.27
2019-03-15T18:42:58.354Z,97941.66
2019-03-15T18:45:26.803Z,97946.00
2019-03-15T18:47:55.189Z,97946.81
2019-03-15T18:50:27.490Z,97962.77
2019-03-15T18:52:55.866Z,97960.27
2019-03-15T18:55:24.436Z,97953.23
2019-03-15T18:57:52.896Z,97965.98
2019-03-15T19:00:22.431Z,97964.86
2019-03-15T19:02:50.823Z,97964.86
2019-03-15T19:05:19.293Z,97973.98
2019-03-15T19:07:47.737Z,97966.75
2019-03-15T19:10:16.674Z,97979.36
2019-03-15T19:12:45.145Z,97987.60
2019-03-15T19:15:17.469Z,97996.89
2019-03-15T19:17:45.913Z,97993.61
2019-03-15T19:20:15.416Z,97987.20
2019-03-15T19:22:44.561Z,97987.75
2019-03-15T19:25:13.894Z,98003.64
2019-03-15T19:27:42.366Z,98005.37
2019-03-15T19:30:12.783Z,98017.70
2019-03-15T19:32:41.229Z,98018.14
2019-03-15T19:35:09.996Z,98020.95
2019-03-15T19:37:38.395Z,98031.14
2019-03-15T19:40:19.159Z,98030.06
2019-03-15T19:42:47.540Z,98056.94
2019-03-15T19:45:16.679Z,98078.46
2019-03-15T19:47:45.069Z,98098.02
2019-03-15T19:50:17.462Z,98097.61
2019-03-15T19:52:45.979Z,98106.53
2019-03-15T19:55:15.492Z,98095.55
2019-03-15T19:57:44.562Z,98098.77
2019-03-15T20:00:17.317Z,98112.56
2019-03-15T20:02:45.767Z,98111.95
2019-03-15T20:05:14.607Z,98111.68
2019-03-15T20:07:43.124Z,98117.17
2019-03-15T20:10:16.891Z,98122.70
2019-03-15T20:12:45.511Z,98129.04
2019-03-15T20:15:15.767Z,98142.36
2019-03-15T20:17:44.736Z,98152.54
2019-03-15T20:20:17.190Z,98155.66
2019-03-15T20:22:45.587Z,98155.52
2019-03-15T20:25:16.714Z,98175.47
2019-03-15T20:27:45.191Z,98184.12
2019-03-15T20:30:26.287Z,98188.05
2019-03-15T20:32:51.663Z,98186.19
2019-03-15T20:35:20.056Z,98178.58
2019-03-15T20:37:48.530Z,98172.81
2019-03-15T20:40:16.909Z,98161.33
2019-03-15T20:42:45.348Z,98166.02
2019-03-15T20:45:25.931Z,98168.84
2019-03-15T20:47:54.335Z,98172.91
2019-03-15T20:50:22.725Z,98178.78
2019-03-15T20:52:51.206Z,98183.66
2019-03-15T20:55:19.691Z,98187.02
2019-03-15T20:57:48.087Z,98193.16
2019-03-15T21:00:34.715Z,98194.34
2019-03-15T21:02:53.388Z,98192.74
2019-03-15T21:05:21.774Z,98193.93
2019-03-15T21:07:50.336Z,98192.84
2019-03-15T21:10:19.086Z,98199.31
2019-03-15T21:12:47.621Z,98201.20
2019-03-15T21:15:16.772Z,98190.34
2019-03-15T21:17:45.346Z,98206.66
2019-03-15T21:20:17.944Z,98191.81
2019-03-15T21:22:46.340Z,98188.06
2019-03-15T21:25:15.605Z,98186.09
2019-03-15T21:27:53.770Z,98180.54
2019-03-15T21:30:22.838Z,98183.38
2019-03-15T21:32:51.463Z,98188.20
2019-03-15T21:35:19.765Z,98188.20
2019-03-15T21:37:48.225Z,98203.06
2019-03-15T21:40:17.849Z,98214.37
2019-03-15T21:42:46.243Z,98218.53
2019-03-15T21:45:15.444Z,98221.75
2019-03-15T21:47:43.832Z,98218.48
2019-03-15T21:50:13.850Z,98223.05
2019-03-15T21:52:42.240Z,98217.98
2019-03-15T21:55:10.615Z,98224.66
2019-03-15T21:57:39.003Z,98221.67
2019-03-15T22:00:10.675Z,98225.22
2019-03-15T22:02:39.074Z,98226.89
2019-03-15T22:05:08.494Z,98233.73
2019-03-15T22:07:36.955Z,98236.62
2019-03-15T22:10:12.764Z,98243.73
2019-03-15T22:12:41.360Z,98252.72
2019-03-15T22:15:13.470Z,98251.62
2019-03-15T22:17:42.053Z,98254.95
2019-03-15T22:20:12.224Z,98266.26
2019-03-15T22:22:40.603Z,98268.77
2019-03-15T22:25:09.958Z,98272.13
2019-03-15T22:27:38.340Z,98275.11
2019-03-15T22:30:12.584Z,98284.63
2019-03-15T22:32:40.970Z,98286.80
2019-03-15T22:35:09.556Z,98300.87
2019-03-15T22:37:37.939Z,98295.45
2019-03-15T22:40:08.475Z,98297.45
2019-03-15T22:42:36.864Z,98296.64
2019-03-15T22:45:07.403Z,98295.51
2019-03-15T22:47:35.797Z,98308.29
2019-03-15T22:50:05.441Z,98293.70
2019-03-15T22:52:33.826Z,98295.88
2019-03-15T22:55:02.214Z,98298.86
2019-03-15T22:57:30.636Z,98299.57
2019-03-15T22:59:59.029Z,98297.40
2019-03-15T23:02:27.458Z,98295.08
2019-03-15T23:04:55.861Z,98305.21
2019-03-15T23:07:24.241Z,98302.08
2019-03-15T23:09:52.637Z,98289.66
2019-03-15T23:12:21.020Z,98275.19
2019-03-15T23:14:49.485Z,98278.69
2019-03-15T23:17:17.864Z,98283.52
2019-03-15T23:19:46.269Z,98287.49
2019-03-15T23:22:14.649Z,98293.28
2019-03-15T23:24:43.044Z,98302.93
2019-03-15T23:27:11.471Z,98303.41
2019-03-15T23:29:39.975Z,98306.53
2019-03-15T23:32:08.422Z,98312.21
2019-03-15T23:34:36.762Z,98312.21
2019-03-15T23:37:05.213Z,98328.75
2019-03-15T23:39:33.605Z,98317.63
2019-03-15T23:42:01.992Z,98307.87
2019-03-15T23:44:30.383Z,98326.23
2019-03-15T23:46:58.774Z,98330.69
2019-03-15T23:49:27.614Z,98340.45
2019-03-15T23:51:55.999Z,98343.11
2019-03-15T23:54:24.383Z,98338.31
2019-03-15T23:56:52.767Z,98326.86
2019-03-15T23:59:21.141Z,98321.84
